METAR Data
IDs: Format: Raw Decoded Include TAF

Data at: 0104 UTC 06 Dec 2019

KCQW 060055Z AUTO 00000KT 10SM CLR 05/M01 A3017 RMK AO2
KCQW 060035Z AUTO 00000KT 10SM CLR 05/M01 A3017 RMK AO2
KCQW 060015Z AUTO 00000KT 10SM CLR 06/M01 A3016 RMK AO2
KCQW 052355Z AUTO 00000KT 10SM CLR 07/M01 A3016 RMK AO2
KCQW 052335Z AUTO 00000KT 10SM CLR 07/M01 A3015 RMK AO2
KCQW 052315Z AUTO 00000KT 10SM CLR 07/M01 A3014 RMK AO2
KCQW 052255Z AUTO 00000KT 10SM CLR 08/M01 A3013 RMK AO2
KCQW 052235Z AUTO 00000KT 10SM CLR 10/M01 A3012 RMK AO2
KCQW 052215Z AUTO 00000KT 10SM CLR 10/M00 A3011 RMK AO2
KCQW 052155Z AUTO 00000KT 10SM CLR 11/M01 A3010 RMK AO2
KCQW 052135Z AUTO 00000KT 10SM CLR 16/M05 A3010 RMK AO2
KCQW 052115Z AUTO 33005KT 10SM CLR 16/M05 A3009 RMK AO2
KCQW 052055Z AUTO 00000KT 10SM CLR 16/M05 A3009 RMK AO2
KCQW 052035Z AUTO 31005KT 10SM CLR 16/M05 A3008 RMK AO2
KCQW 052015Z AUTO 29006KT 10SM CLR 16/M06 A3008 RMK AO2
KCQW 051955Z AUTO 00000G10KT 10SM CLR 16/M05 A3007 RMK AO2
KCQW 051935Z AUTO 25006KT 10SM CLR 16/M06 A3007 RMK AO2
KCQW 051915Z AUTO VRB05KT 10SM CLR 16/M06 A3007 RMK AO2
KCQW 051855Z AUTO VRB06KT 10SM CLR 16/M06 A3008 RMK AO2
KCQW 051835Z AUTO 29009KT 260V320 10SM CLR 16/M06 A3007 RMK AO2
KCQW 051815Z AUTO 25004KT 10SM CLR 16/M06 A3008 RMK AO2
KCQW 051755Z AUTO VRB03KT 10SM CLR 15/M06 A3008 RMK AO2
KCQW 051735Z AUTO VRB03KT 10SM CLR 16/M05 A3009 RMK AO2
KCQW 051715Z AUTO 33004KT 10SM CLR 15/M05 A3009 RMK AO2
KCQW 051655Z AUTO 00000KT 10SM CLR 14/M05 A3010 RMK AO2
KCQW 051635Z AUTO 00000KT 10SM CLR 13/M05 A3010 RMK AO2
KCQW 051615Z AUTO VRB04KT 10SM CLR 14/M04 A3010 RMK AO2
KCQW 051555Z AUTO 03007KT 010V070 10SM CLR 13/M04 A3010 RMK AO2
KCQW 051535Z AUTO 04008KT 10SM CLR 12/M03 A3010 RMK AO2
KCQW 051515Z AUTO 02007KT 10SM CLR 11/M01 A3010 RMK AO2
KCQW 051455Z AUTO 03006KT 10SM CLR 10/M01 A3010 RMK AO2
KCQW 051435Z AUTO 02006KT 10SM CLR 09/M01 A3009 RMK AO2
KCQW 051415Z AUTO 04004KT 10SM CLR 08/00 A3008 RMK AO2
KCQW 051355Z AUTO 00000KT 10SM CLR 06/01 A3008 RMK AO2
KCQW 051335Z AUTO 00000KT 10SM CLR 05/01 A3007 RMK AO2
KCQW 051315Z AUTO 00000KT 10SM CLR 03/01 A3005 RMK AO2
KCQW 051255Z AUTO 00000KT 10SM CLR 05/M01 A3004 RMK AO2
KCQW 051235Z AUTO 27003KT 10SM CLR 05/M02 A3002 RMK AO2
KCQW 051215Z AUTO 26004KT 10SM CLR 04/M01 A3001 RMK AO2
KCQW 051155Z AUTO 25005KT 10SM CLR 05/M02 A3000 RMK AO2
KCQW 051135Z AUTO 25005KT 10SM CLR 04/M02 A2998 RMK AO2
KCQW 051115Z AUTO 24006KT 10SM CLR 04/M01 A2997 RMK AO2
KCQW 051055Z AUTO 24005KT 10SM CLR 05/M02 A2996 RMK AO2
KCQW 051035Z AUTO 25005KT 10SM CLR 05/M02 A2994 RMK AO2
KCQW 051015Z AUTO 25006KT 10SM CLR 05/M02 A2993 RMK AO2
KCQW 050955Z AUTO 25005KT 10SM CLR 05/M02 A2991 RMK AO2
KCQW 050935Z AUTO 25005KT 10SM CLR 05/M02 A2991 RMK AO2
KCQW 050915Z AUTO 25004KT 10SM CLR 05/M02 A2990 RMK AO2
KCQW 050855Z AUTO 24005KT 10SM CLR 05/M02 A2989 RMK AO2
KCQW 050835Z AUTO 24005KT 10SM CLR 04/M01 A2988 RMK AO2
KCQW 050815Z AUTO 25005KT 10SM CLR 04/M01 A2987 RMK AO2
KCQW 050755Z AUTO 24005KT 10SM CLR 04/M01 A2986 RMK AO2
KCQW 050735Z AUTO 00000KT 10SM CLR 05/M01 A2986 RMK AO2
KCQW 050715Z AUTO 25005KT 10SM CLR 04/M01 A2984 RMK AO2
KCQW 050655Z AUTO 24005KT 10SM CLR 04/M01 A2984 RMK AO2
KCQW 050635Z AUTO 25004KT 10SM CLR 04/M00 A2984 RMK AO2
KCQW 050615Z AUTO 25003KT 10SM CLR 04/M00 A2983 RMK AO2
KCQW 050555Z AUTO 24004KT 10SM CLR 05/M00 A2983 RMK AO2
KCQW 050535Z AUTO 24005KT 10SM CLR 05/00 A2983 RMK AO2
KCQW 050515Z AUTO 23006KT 10SM CLR 05/00 A2983 RMK AO2
KCQW 050455Z AUTO 24005KT 10SM CLR 06/00 A2982 RMK AO2
KCQW 050435Z AUTO 23006KT 10SM CLR 05/00 A2982 RMK AO2
KCQW 050415Z AUTO 23004KT 10SM CLR 06/M00 A2981 RMK AO2
KCQW 050355Z AUTO 24005KT 10SM CLR 07/M00 A2981 RMK AO2
KCQW 050335Z AUTO 25005KT 10SM CLR 07/00 A2980 RMK AO2
KCQW 050315Z AUTO 25003KT 10SM CLR 07/00 A2980 RMK AO2
KCQW 050255Z AUTO 25004KT 10SM CLR 07/01 A2979 RMK AO2
KCQW 050235Z AUTO 24004KT 10SM CLR 07/01 A2979 RMK AO2
KCQW 050215Z AUTO 24004KT 10SM CLR 06/01 A2979 RMK AO2
KCQW 050155Z AUTO 24003KT 10SM CLR 07/01 A2979 RMK AO2
KCQW 050135Z AUTO 26003KT 10SM CLR 08/01 A2979 RMK AO2
KCQW 050115Z AUTO 24005KT 10SM CLR 08/01 A2978 RMK AO2
KCQW 050055Z AUTO 23003KT 10SM CLR 08/01 A2978 RMK AO2
KCQW 050035Z AUTO 23005KT 10SM CLR 08/01 A2977 RMK AO2
KCQW 050015Z AUTO 23005KT 10SM CLR 08/00 A2977 RMK AO2
KCQW 042355Z AUTO 23004KT 10SM CLR 09/00 A2977 RMK AO2
KCQW 042335Z AUTO 23004KT 10SM CLR 10/M00 A2976 RMK AO2
KCQW 042315Z AUTO 23005KT 10SM CLR 09/M00 A2975 RMK AO2
KCQW 042255Z AUTO 23004KT 10SM CLR 10/M01 A2975 RMK AO2
KCQW 042235Z AUTO 23005KT 10SM CLR 12/M01 A2975 RMK AO2
KCQW 042215Z AUTO 24006KT 10SM CLR 13/M02 A2974 RMK AO2
KCQW 042155Z AUTO 25007KT 9SM CLR 14/M02 A2973 RMK AO2
KCQW 042135Z AUTO 26005KT 8SM CLR 15/M02 A2973 RMK AO2
KCQW 042115Z AUTO 25005G13KT 10SM CLR 15/M02 A2972 RMK AO2
KCQW 042055Z AUTO 26008KT 10SM CLR 15/M02 A2972 RMK AO2
KCQW 042035Z AUTO 25012KT 10SM CLR 15/M02 A2972 RMK AO2
KCQW 042015Z AUTO 27008KT 10SM CLR 15/M02 A2972 RMK AO2
KCQW 041955Z AUTO 24010KT 10SM FEW015 FEW025 16/M02 A2971 RMK AO2
KCQW 041935Z AUTO 24010KT 10SM FEW014 15/M02 A2971 RMK AO2
KCQW 041915Z AUTO 23009KT 10SM CLR 15/M03 A2971 RMK AO2
KCQW 041855Z AUTO 22007G14KT 200V270 10SM CLR 15/M02 A2971 RMK AO2
KCQW 041835Z AUTO 23010KT 10SM CLR 15/M03 A2971 RMK AO2
KCQW 041815Z AUTO 25010KT 10SM CLR 15/M03 A2972 RMK AO2
KCQW 041755Z AUTO VRB06G12KT 10SM CLR 15/M03 A2972 RMK AO2
KCQW 041735Z AUTO 25004KT 10SM CLR 14/M03 A2973 RMK AO2
KCQW 041715Z AUTO VRB05G11KT 10SM CLR 15/M03 A2975 RMK AO2
KCQW 041655Z AUTO VRB05G11KT 10SM CLR 13/M03 A2976 RMK AO2
KCQW 041635Z AUTO 25004KT 10SM CLR 13/M04 A2978 RMK AO2
KCQW 041615Z AUTO VRB04KT 10SM CLR 12/M03 A2979 RMK AO2
KCQW 041555Z AUTO VRB05KT 10SM CLR 11/M02 A2980 RMK AO2
KCQW 041535Z AUTO VRB04KT 10SM CLR 10/M00 A2981 RMK AO2
KCQW 041515Z AUTO 21003KT 10SM CLR 10/M00 A2981 RMK AO2
KCQW 041455Z AUTO 27003KT 10SM CLR 09/00 A2982 RMK AO2
KCQW 041435Z AUTO VRB03KT 10SM CLR 08/02 A2983 RMK AO2
KCQW 041415Z AUTO 28004KT 10SM CLR 06/02 A2981 RMK AO2
KCQW 041355Z AUTO 28006KT 10SM CLR 05/02 A2981 RMK AO2
KCQW 041335Z AUTO 29004KT 10SM CLR 04/02 A2979 RMK AO2
KCQW 041315Z AUTO 00000KT 10SM CLR 03/02 A2979 RMK AO2